Latest Weather Observations for Hobart Airport

IDT60801

Issued at 8:02 am EST Saturday 23 September 2017 (issued every 30 minutes, with the page automatically refreshed every 10 minutes)

About weather observations | Map of weather stations | Latest weather observations for TAS | Other Formats
Station Details ID: 094008 Name: HOBART AIRPORT Lat: -42.83 Lon: 147.50 Height: 4.0 m
Data from the previous 72 hours. | See also: Recent months at Hobart Airport
Date/Time
EST
Temp
°C
App
Temp
°C
Dew
Point
°C
Rel
Hum
%
Delta-T
°C
Wind Press
QNH
hPa
Press
MSL
hPa
Rain since
9am
mm
Dir  Spd
km/h
Gust
km/h
Spd
kts
Gust
kts
23/07:30am 10.1 7.9 7.8 86 1.1 NW 9 15 5 8 997.3 997.3 0.8
23/07:00am 10.9 9.1 7.2 78 1.8 NE 6 15 3 8 997.6 997.6 0.8
23/06:50am 10.5 6.6 6.9 78 1.7 NNE 17 24 9 13 997.5 997.5 0.8
23/06:34am 9.3 6.9 7.2 87 1.0 NNW 9 13 5 7 999.5 999.5 0.6
23/06:30am 9.2 6.8 7.1 87 1.0 NNW 9 11 5 6 999.2 999.2 0.6
23/06:00am 9.9 7.7 6.3 78 1.7 WNW 7 11 4 6 997.7 997.7 0.2
23/05:30am 8.8 7.0 7.1 89 0.8 ESE 6 9 3 5 998.0 998.0 0.2
23/05:00am 9.6 7.6 7.3 85 1.1 WNW 7 9 4 5 998.7 998.7 0.2
23/04:30am 10.2 7.7 8.2 87 1.0 NE 11 15 6 8 999.0 999.0 0.2
23/04:00am 11.4 7.8 6.8 73 2.2 N 15 26 8 14 999.7 999.7 0.2
23/03:30am 11.3 8.8 8.0 80 1.6 NNW 11 13 6 7 1001.4 1001.4 0.2
23/03:00am 11.2 8.4 8.4 83 1.4 N 13 20 7 11 1000.7 1000.7 0.2
23/02:30am 11.1 9.5 8.9 86 1.1 S 7 11 4 6 1001.1 1001.1 0.2
23/02:00am 12.3 10.0 9.1 81 1.6 NNW 11 15 6 8 1002.4 1002.4 0.2
23/01:58am 12.2 9.9 9.0 81 1.6 N 11 17 6 9 1002.3 1002.3 0.2
23/01:49am 12.2 9.5 8.8 80 1.7 N 13 20 7 11 1000.1 1000.1 0.0
23/01:30am 12.1 8.6 8.7 80 1.7 NNW 17 30 9 16 1002.4 1002.4 0.0
23/01:00am 12.5 8.0 8.5 76 2.0 NW 22 33 12 18 1002.3 1002.3 0.0
23/12:30am 13.1 8.9 8.1 71 2.5 NNW 20 28 11 15 1002.1 1002.1 0.0
23/12:00am 12.4 7.1 8.4 76 2.0 N 26 35 14 19 1002.7 1002.7 0.0
 
Date/Time
EST
Temp
°C
App
Temp
°C
Dew
Point
°C
Rel
Hum
%
Delta-T
°C
Wind Press
QNH
hPa
Press
MSL
hPa
Rain since
9am
mm
Dir  Spd
km/h
Gust
km/h
Spd
kts
Gust
kts
22/11:30pm 12.9 9.2 7.8 71 2.5 N 17 26 9 14 1002.5 1002.5 0.0
22/11:00pm 13.2 8.4 7.5 68 2.8 NNW 22 30 12 16 1003.6 1003.6 0.0
22/10:30pm 13.5 9.4 6.4 62 3.4 NNW 17 28 9 15 1003.7 1003.7 0.0
22/10:00pm 13.1 10.7 6.9 66 3.0 N 9 13 5 7 1003.9 1003.9 0.0
22/09:30pm 13.0 9.9 5.6 61 3.5 N 11 15 6 8 1003.9 1003.9 0.0
22/09:00pm 12.7 9.7 5.9 63 3.2 NNE 11 15 6 8 1004.2 1004.2 0.0
22/08:30pm 13.6 9.3 5.3 57 3.9 N 17 28 9 15 1004.5 1004.5 0.0
22/08:00pm 13.7 10.1 5.2 56 4.0 N 13 19 7 10 1004.4 1004.4 0.0
22/07:30pm 13.4 8.9 6.1 61 3.5 NE 19 24 10 13 1004.5 1004.5 0.0
22/07:00pm 13.5 10.0 5.4 58 3.8 ENE 13 17 7 9 1004.9 1004.9 0.0
22/06:30pm 13.5 9.1 6.4 62 3.4 NE 19 24 10 13 1004.7 1004.7 0.0
22/06:00pm 14.0 9.4 6.3 60 3.7 NE 20 28 11 15 1004.6 1004.6 0.0
22/05:30pm 14.5 8.9 5.5 54 4.3 NE 24 32 13 17 1004.8 1004.8 0.0
22/05:00pm 15.5 10.0 3.8 45 5.4 NE 22 32 12 17 1004.6 1004.6 0.0
22/04:30pm 16.6 11.5 4.0 43 5.9 NE 20 30 11 16 1004.7 1004.7 0.0
22/04:00pm 16.7 12.7 5.0 46 5.6 E 15 20 8 11 1004.9 1004.9 0.0
22/03:30pm 16.7 13.0 4.2 43 5.9 E 13 19 7 10 1004.9 1004.9 0.0
22/03:00pm 16.9 12.7 3.9 42 6.1 ESE 15 22 8 12 1005.1 1005.1 0.0
22/02:30pm 18.6 15.6 0.9 30 7.9 N 6 11 3 6 1005.4 1005.4 0.0
22/02:00pm 17.8 13.9 1.2 32 7.4 NNW 11 17 6 9 1005.7 1005.7 0.0
22/01:30pm 17.9 14.0 1.1 32 7.5 NW 11 17 6 9 1005.9 1005.9 0.0
22/01:00pm 17.1 12.9 1.4 34 7.0 NNW 13 20 7 11 1006.3 1006.3 0.0
22/12:30pm 17.1 12.6 2.3 37 6.7 NW 15 26 8 14 1007.0 1007.0 0.0
22/12:00pm 16.3 12.3 2.9 40 6.1 NNW 13 20 7 11 1007.4 1007.4 0.0
22/11:30am 16.9 12.6 3.3 40 6.3 NNW 15 20 8 11 1007.6 1007.6 0.0
22/11:00am 16.1 10.4 2.9 41 6.0 NW 22 28 12 15 1007.8 1007.8 0.0
22/10:30am 15.4 9.4 3.1 43 5.6 NW 24 35 13 19 1007.9 1007.9 0.0
22/10:00am 14.7 9.3 2.6 44 5.4 NW 20 30 11 16 1008.0 1008.0 0.0
22/09:30am 14.2 9.6 3.9 50 4.7 NNW 17 26 9 14 1008.3 1008.3 0.0
22/09:00am 13.0 8.7 3.4 52 4.3 N 15 20 8 11 1008.6 1008.6 0.0
22/08:30am 12.0 8.1 3.5 56 3.8 N 13 17 7 9 1008.3 1008.3 0.0
22/08:00am 10.7 7.9 5.2 69 2.5 NNW 9 13 5 7 1008.1 1008.1 0.0
22/07:30am 9.6 6.7 4.9 72 2.1 NNW 9 11 5 6 1007.7 1007.7 0.0
22/07:00am 10.2 7.3 4.6 68 2.5 N 9 11 5 6 1007.7 1007.7 0.0
22/06:30am 7.2 5.5 4.0 80 1.4 NW 2 9 1 5 1007.6 1007.6 0.0
22/06:00am 7.6 4.4 3.1 73 1.9 WSW 9 11 5 6 1007.7 1007.7 0.0
22/05:30am 7.2 4.1 3.4 77 1.6 NW 9 11 5 6 1006.9 1006.9 0.0
22/05:00am 8.1 4.9 2.9 70 2.2 NW 9 13 5 7 1006.7 1006.7 0.0
22/04:30am 8.1 4.9 3.2 71 2.1 NW 9 11 5 6 1006.5 1006.5 0.0
22/04:00am 8.9 4.5 2.8 65 2.6 WNW 15 19 8 10 1006.3 1006.3 0.0
22/03:30am 9.5 4.7 2.7 62 2.9 WNW 17 19 9 10 1006.3 1006.3 0.0
22/03:00am 9.6 5.2 2.9 63 2.9 NW 15 20 8 11 1006.4 1006.4 0.0
22/02:30am 10.2 5.9 3.1 61 3.1 NW 15 19 8 10 1006.4 1006.4 0.0
22/02:00am 10.4 5.7 3.3 61 3.1 WNW 17 19 9 10 1006.5 1006.5 0.0
22/01:30am 11.5 6.2 2.8 55 3.8 WNW 20 26 11 14 1006.6 1006.6 0.0
22/01:00am 11.4 6.6 2.7 55 3.8 WNW 17 22 9 12 1006.9 1006.9 0.0
22/12:30am 11.5 7.0 2.2 53 4.0 WNW 15 19 8 10 1006.9 1006.9 0.0
22/12:00am 11.3 6.5 2.8 56 3.7 WNW 17 19 9 10 1006.6 1006.6 0.0
 
Date/Time
EST
Temp
°C
App
Temp
°C
Dew
Point
°C
Rel
Hum
%
Delta-T
°C
Wind Press
QNH
hPa
Press
MSL
hPa
Rain since
9am
mm
Dir  Spd
km/h
Gust
km/h
Spd
kts
Gust
kts
21/11:30pm 11.3 8.3 4.2 61 3.2 NNW 9 13 5 7 1006.5 1006.5 0.0
21/11:00pm 10.6 7.2 4.1 64 2.9 NNW 11 13 6 7 1006.7 1006.7 0.0
21/10:30pm 12.4 8.2 1.4 47 4.7 WNW 13 19 7 10 1006.6 1006.6 0.0
21/10:00pm 13.3 7.2 0.2 40 5.5 W 22 32 12 17 1006.1 1006.1 0.0
21/09:30pm 13.5 7.5 1.2 43 5.3 W 22 32 12 17 1005.8 1005.8 0.0
21/09:00pm 13.3 8.8 2.1 46 4.9 W 15 19 8 10 1005.4 1005.4 0.0
21/08:30pm 14.5 7.5 2.1 43 5.5 W 28 35 15 19 1004.7 1004.7 0.0
21/08:00pm 14.7 10.4 5.2 53 4.5 W 17 20 9 11 1004.2 1004.2 0.0
21/07:30pm 15.5 11.4 6.0 53 4.6 W 17 22 9 12 1003.5 1003.5 0.0
21/07:00pm 16.8 11.9 4.3 43 5.9 WNW 19 28 10 15 1002.7 1002.7 0.0
21/06:30pm 17.3 10.7 4.2 41 6.2 NW 28 37 15 20 1001.8 1001.8 0.0
21/06:00pm 17.6 10.3 4.4 41 6.3 NW 32 46 17 25 1001.3 1001.3 0.0
21/05:30pm 18.4 10.8 3.9 38 6.8 NW 33 44 18 24 1000.9 1000.9 0.0
21/05:00pm 19.1 11.9 3.2 34 7.5 NW 30 43 16 23 1000.6 1000.6 0.0
21/04:33pm 19.5 11.9 3.8 35 7.5 NW 33 52 18 28 1000.5 1000.5 0.0
21/04:30pm 19.6 11.6 3.7 35 7.5 NW 35 52 19 28 1000.5 1000.5 0.0
21/04:15pm 20.5 12.9 3.0 31 8.2 NW 32 48 17 26 1000.3 1000.3 0.0
21/04:00pm 20.5 15.0 4.2 34 7.9 NNW 22 30 12 16 1000.1 1000.1 0.0
21/03:30pm 21.0 14.4 4.2 33 8.1 NNW 28 46 15 25 999.9 999.9 0.0
21/03:27pm 21.2 14.5 3.9 32 8.3 NNW 28 46 15 25 999.8 999.8 0.0
21/03:00pm 20.7 14.1 6.0 38 7.4 N 30 41 16 22 999.6 999.6 0.0
21/02:47pm 20.0 13.2 5.2 38 7.3 NNW 30 48 16 26 999.6 999.6 0.0
21/02:30pm 20.0 12.8 4.9 37 7.4 NNW 32 46 17 25 999.6 999.6 0.0
21/02:13pm 20.4 13.5 4.7 35 7.6 N 30 54 16 29 999.6 999.6 0.0
21/02:00pm 21.1 14.9 6.1 37 7.6 N 28 41 15 22 999.9 999.9 0.0
21/01:30pm 21.0 15.1 5.6 36 7.7 NNE 26 39 14 21 1000.3 1000.3 0.0
21/01:00pm 20.2 13.8 5.2 37 7.4 NNE 28 46 15 25 1000.7 1000.7 0.0
21/12:30pm 19.8 13.5 5.7 39 7.0 NNE 28 39 15 21 1001.6 1001.6 0.0
21/12:00pm 18.8 12.9 5.6 42 6.5 N 26 41 14 22 1002.9 1002.9 0.0
21/11:30am 17.4 11.2 6.3 48 5.5 N 28 39 15 21 1004.3 1004.3 0.0
21/11:00am 15.5 10.1 6.5 55 4.4 NNE 24 37 13 20 1005.2 1005.2 0.0
21/10:30am 14.7 8.4 5.7 55 4.3 N 28 35 15 19 1005.9 1005.9 0.0
21/10:00am 14.4 8.4 5.3 54 4.3 N 26 37 14 20 1006.4 1006.4 0.0
21/09:30am 13.8 8.2 5.3 56 4.0 N 24 37 13 20 1007.0 1007.0 0.0
21/09:00am 13.5 8.6 5.2 57 3.9 N 20 33 11 18 1007.2 1007.2 0.0
21/08:30am 12.8 9.3 5.6 61 3.4 N 13 26 7 14 1007.4 1007.4 0.0
21/08:00am 12.0 8.3 6.1 67 2.8 N 15 22 8 12 1007.9 1007.9 0.0
21/07:30am 12.0 7.8 5.8 66 2.9 N 17 26 9 14 1008.0 1008.0 0.0
21/07:00am 11.3 7.6 6.2 71 2.4 N 15 22 8 12 1008.8 1008.8 0.0
21/06:30am 11.3 7.9 6.0 70 2.5 N 13 15 7 8 1008.7 1008.7 0.0
21/06:00am 11.1 8.1 6.2 72 2.3 N 11 13 6 7 1008.6 1008.6 0.0
21/05:30am 11.3 7.9 6.0 70 2.5 N 13 17 7 9 1008.6 1008.6 0.0
21/05:00am 10.7 8.3 6.9 77 1.8 NW 9 13 5 7 1008.6 1008.6 0.0
21/04:30am 11.0 8.9 6.8 75 2.0 NNE 7 9 4 5 1008.4 1008.4 0.0
21/04:00am 11.1 9.1 7.1 76 1.9 N 7 11 4 6 1009.0 1009.0 0.0
21/03:30am 11.3 8.5 7.1 75 2.0 NW 11 15 6 8 1009.2 1009.2 0.0
21/03:00am 11.3 8.2 7.4 77 1.9 NW 13 15 7 8 1009.7 1009.7 0.0
21/02:30am 11.4 7.9 7.2 75 2.0 NNW 15 20 8 11 1009.6 1009.6 0.0
21/02:00am 11.5 8.4 7.1 74 2.1 NW 13 17 7 9 1010.1 1010.1 0.0
21/01:30am 11.4 9.0 7.2 75 2.0 NNW 9 15 5 8 1010.2 1010.2 0.0
21/01:00am 11.3 8.2 7.4 77 1.9 N 13 20 7 11 1011.1 1011.1 0.0
21/12:30am 11.6 7.3 7.0 73 2.2 N 19 28 10 15 1011.5 1011.5 0.0
21/12:00am 11.7 8.9 7.1 73 2.2 N 11 17 6 9 1012.0 1012.0 0.0
 
Date/Time
EST
Temp
°C
App
Temp
°C
Dew
Point
°C
Rel
Hum
%
Delta-T
°C
Wind Press
QNH
hPa
Press
MSL
hPa
Rain since
9am
mm
Dir  Spd
km/h
Gust
km/h
Spd
kts
Gust
kts
20/11:30pm 11.7 7.8 7.1 73 2.2 NNW 17 28 9 15 1011.6 1011.6 0.0
20/11:00pm 12.0 9.2 7.0 71 2.4 NNW 11 17 6 9 1011.9 1011.9 0.0
20/10:30pm 11.9 8.7 6.9 71 2.4 N 13 19 7 10 1012.0 1012.0 0.0
20/10:00pm 12.0 9.6 7.0 71 2.4 NNW 9 15 5 8 1011.8 1011.8 0.0
20/09:30pm 11.0 8.5 6.5 74 2.1 NNE 9 15 5 8 1011.8 1011.8 0.0
20/09:00pm 10.8 7.4 6.1 73 2.2 WNW 13 17 7 9 1012.4 1012.4 0.0
20/08:30pm 11.2 8.5 5.8 69 2.5 SE 9 13 5 7 1011.5 1011.5 0.0
20/08:00pm 11.0 8.7 5.8 70 2.4 S 7 9 4 5 1012.4 1012.4 0.0
20/07:30pm 11.4 8.3 5.6 67 2.7 S 11 13 6 7 1012.7 1012.7 0.0
20/07:00pm 11.3 8.6 5.7 68 2.6 SSE 9 13 5 7 1012.6 1012.6 0.0
20/06:30pm 11.6 8.1 5.3 65 2.9 SSW 13 15 7 8 1012.5 1012.5 0.0
20/06:00pm 11.9 8.7 5.2 63 3.1 SSW 11 13 6 7 1011.6 1011.6 0.0
20/05:30pm 12.2 9.4 5.3 62 3.2 SSE 9 13 5 7 1011.3 1011.3 0.0
20/05:00pm 13.2 10.2 4.2 54 4.1 SSE 9 11 5 6 1011.8 1011.8 0.0
20/04:30pm 14.4 10.5 3.3 47 5.0 ENE 13 17 7 9 1011.6 1011.6 0.0
20/04:00pm 14.3 9.7 3.8 49 4.8 ENE 17 22 9 12 1011.5 1011.5 0.0
20/03:30pm 15.8 12.5 2.7 41 5.9 WNW 9 13 5 7 1011.2 1011.2 0.0
20/03:00pm 15.9 12.0 3.2 42 5.8 WNW 13 17 7 9 1011.9 1011.9 0.0
20/02:30pm 16.0 11.5 2.4 40 6.1 NNW 15 20 8 11 1012.2 1012.2 0.0
20/02:00pm 15.5 10.7 2.6 42 5.8 NW 17 26 9 14 1012.8 1012.8 0.0
20/01:30pm 15.0 9.3 2.7 43 5.5 NW 22 28 12 15 1013.4 1013.4 0.0
20/01:00pm 14.2 10.2 2.8 46 5.1 NNW 13 22 7 12 1013.7 1013.7 0.0
20/12:30pm 13.4 8.6 2.8 48 4.7 NW 17 24 9 13 1014.5 1014.5 0.0
20/12:00pm 13.5 8.1 2.3 46 4.9 NW 20 30 11 16 1015.1 1015.1 0.0
20/11:30am 13.2 8.3 2.2 47 4.8 NW 17 24 9 13 1015.2 1015.2 0.0
20/11:00am 12.8 8.4 2.5 49 4.5 NW 15 28 8 15 1015.6 1015.6 0.0
20/10:30am 11.5 6.0 1.9 51 4.1 NW 20 26 11 14 1016.2 1016.2 0.0
20/10:00am 11.4 6.5 2.0 52 4.0 NW 17 30 9 16 1016.9 1016.9 0.0
20/09:30am 10.1 5.1 1.1 53 3.7 NNW 17 20 9 11 1017.3 1017.3 0.0
20/09:00am 9.3 5.5 1.6 58 3.2 NNW 11 17 6 9 1017.5 1017.5 0.0
20/08:30am 7.2 3.5 2.1 70 2.1 NW 11 13 6 7 1017.7 1017.7 0.0

Other Formats:

Comma delimited format used in spreadsheet applications
http://www.bom.gov.au/fwo/IDT60801/IDT60801.94975.axf

JavaScript Object Notation format (JSON) in row-major order
http://www.bom.gov.au/fwo/IDT60801/IDT60801.94975.json